Time;durP1;ratioP1;P1;durP2;ratioP2;P2;SDS_P1;SDS_P2;PMS_P1;PMS_P2;Temp;Humidity;BMP_temperature;BMP_pressure;BME280_temperature;BME280_humidity;BME280_pressure;Samples;Min_cycle;Max_cycle;Signal;HPM_P1;HPM_P2
2022/04/28 00:00:05;;;;;;;18.20;6.85;;;3.70;99.90;;;;;;5038312;28;20049;-83
2022/04/28 00:02:30;;;;;;;16.20;6.45;;;3.60;99.90;;;;;;5014801;28;20140;-83
2022/04/28 00:04:56;;;;;;;18.35;7.03;;;3.60;99.90;;;;;;5032144;28;20133;-83
2022/04/28 00:07:22;;;;;;;17.23;7.55;;;3.50;99.90;;;;;;4998538;28;20107;-83
2022/04/28 00:09:48;;;;;;;20.13;6.65;;;3.50;99.90;;;;;;5042094;28;20115;-84
2022/04/28 00:12:13;;;;;;;20.20;7.70;;;3.40;99.90;;;;;;5050598;28;20057;-84
2022/04/28 00:43:52;;;;;;;15.98;7.45;;;2.90;99.90;;;;;;5021467;28;20045;-84
2022/04/28 00:46:18;;;;;;;18.27;7.40;;;2.90;99.90;;;;;;5014823;28;20053;-85
2022/04/28 00:51:33;;;;;;;19.77;8.30;;;2.80;99.90;;;;;;5036600;28;20052;-84
2022/04/28 00:54:00;;;;;;;18.42;7.95;;;2.80;99.90;;;;;;5016342;28;20041;-84
2022/04/28 00:56:27;;;;;;;20.73;7.82;;;2.80;99.90;;;;;;5018530;28;20399;-84
2022/04/28 00:58:54;;;;;;;22.17;8.45;;;2.90;99.90;;;;;;5002618;28;20454;-85
2022/04/28 01:01:20;;;;;;;21.90;8.35;;;2.80;99.90;;;;;;5018179;28;20057;-84
2022/04/28 01:03:46;;;;;;;21.63;8.82;;;2.70;99.90;;;;;;5035469;28;20053;-83
2022/04/28 01:06:15;;;;;;;20.90;8.80;;;2.70;99.90;;;;;;5037299;28;20042;-84
2022/04/28 01:08:41;;;;;;;17.98;9.10;;;2.70;99.90;;;;;;4988927;28;20058;-85
2022/04/28 01:11:07;;;;;;;18.25;8.32;;;2.60;99.90;;;;;;5000199;28;20517;-84
2022/04/28 01:13:33;;;;;;;16.85;8.32;;;2.60;99.90;;;;;;5027077;28;20045;-84
2022/04/28 01:16:00;;;;;;;18.38;8.63;;;2.60;99.90;;;;;;5057226;28;20041;-84
2022/04/28 01:18:26;;;;;;;19.52;9.18;;;2.60;99.90;;;;;;5039242;28;20399;-84
2022/04/28 01:20:51;;;;;;;20.95;9.35;;;2.60;99.90;;;;;;5039584;28;20056;-83
2022/04/28 01:23:20;;;;;;;17.70;8.52;;;2.50;99.90;;;;;;5020071;28;20058;-83
2022/04/28 01:25:45;;;;;;;19.42;8.80;;;2.50;99.90;;;;;;4999633;28;20054;-84
2022/04/28 01:28:13;;;;;;;21.48;8.95;;;2.50;99.90;;;;;;5022689;28;20049;-84
2022/04/28 01:30:38;;;;;;;22.33;9.18;;;2.40;99.90;;;;;;5035948;28;20228;-84
2022/04/28 01:33:05;;;;;;;27.38;9.80;;;2.40;99.90;;;;;;4999413;28;20057;-83
2022/04/28 01:35:31;;;;;;;20.70;9.00;;;2.30;99.90;;;;;;5017546;28;20041;-85
2022/04/28 01:37:57;;;;;;;21.40;8.85;;;2.30;99.90;;;;;;5050129;28;20449;-85
2022/04/28 01:40:23;;;;;;;23.33;9.00;;;2.30;99.90;;;;;;5017039;28;20406;-85
2022/04/28 01:42:50;;;;;;;21.88;9.30;;;2.20;99.90;;;;;;5016736;28;20091;-84
2022/04/28 01:45:16;;;;;;;15.05;9.60;;;2.10;99.90;;;;;;5000393;28;20121;-84
2022/04/28 01:47:42;;;;;;;28.92;10.30;;;2.10;99.90;;;;;;5013595;28;20522;-84
2022/04/28 01:50:10;;;;;;;17.30;9.80;;;2.10;99.90;;;;;;4997421;28;20045;-84
2022/04/28 01:55:24;;;;;;;21.60;9.13;;;2.00;99.90;;;;;;5014609;28;20053;-84
2022/04/28 01:57:49;;;;;;;25.77;10.18;;;2.00;99.90;;;;;;5027682;28;20046;-84
2022/04/28 02:00:16;;;;;;;21.20;9.88;;;2.00;99.90;;;;;;5017185;28;20491;-84
2022/04/28 02:02:43;;;;;;;22.00;9.88;;;2.00;99.90;;;;;;5016937;28;20045;-84
2022/04/28 02:05:10;;;;;;;24.23;9.73;;;2.00;99.90;;;;;;5016784;28;20153;-84
2022/04/28 02:07:36;;;;;;;19.00;10.13;;;2.00;99.90;;;;;;4995473;28;20420;-86
2022/04/28 02:10:04;;;;;;;19.00;10.45;;;2.00;99.90;;;;;;4997190;28;20455;-84
2022/04/28 02:12:29;;;;;;;20.10;9.95;;;1.90;99.90;;;;;;4995656;28;20088;-85
2022/04/28 02:14:55;;;;;;;20.10;10.40;;;1.90;99.90;;;;;;5014263;28;20464;-85
2022/04/28 02:17:26;;;;;;;25.35;9.88;;;1.80;99.90;;;;;;4997121;28;20106;-84
2022/04/28 02:19:52;;;;;;;25.70;10.48;;;1.80;99.90;;;;;;5015353;28;20079;-83
2022/04/28 02:22:18;;;;;;;26.38;10.30;;;2.10;99.90;;;;;;5014068;28;20104;-84
2022/04/28 02:24:45;;;;;;;19.27;9.98;;;1.70;99.90;;;;;;5015422;28;20049;-84
2022/04/28 02:27:11;;;;;;;20.40;10.43;;;2.00;99.90;;;;;;5033570;28;20096;-84
2022/04/28 02:29:36;;;;;;;20.55;10.40;;;1.70;99.90;;;;;;5014674;28;20033;-84
2022/04/28 02:32:03;;;;;;;21.23;10.77;;;1.70;99.90;;;;;;5033561;28;20049;-83
2022/04/28 02:34:29;;;;;;;19.45;10.45;;;1.70;99.90;;;;;;5015665;28;20479;-84
2022/04/28 02:36:55;;;;;;;19.17;9.77;;;1.70;99.90;;;;;;5016090;28;20411;-84
2022/04/28 02:39:21;;;;;;;24.70;11.27;;;2.00;99.90;;;;;;5011907;28;20499;-85
2022/04/28 02:41:47;;;;;;;20.13;11.10;;;1.70;99.90;;;;;;5019691;28;20057;-85
2022/04/28 02:44:13;;;;;;;22.55;10.20;;;1.70;99.90;;;;;;5016123;28;20111;-84
2022/04/28 02:46:43;;;;;;;17.00;10.15;;;1.60;99.90;;;;;;5038462;28;20041;-84
2022/04/28 02:49:12;;;;;;;19.85;9.93;;;1.60;99.90;;;;;;5053244;28;20048;-84
2022/04/28 02:51:38;;;;;;;21.00;10.65;;;1.60;99.90;;;;;;5051424;28;20055;-84
2022/04/28 02:54:05;;;;;;;25.63;10.57;;;1.70;99.90;;;;;;5018911;28;20076;-84
2022/04/28 02:56:31;;;;;;;28.48;11.00;;;1.70;99.90;;;;;;5051824;28;20518;-84
2022/04/28 02:58:57;;;;;;;23.67;11.32;;;1.80;99.90;;;;;;5051937;28;20048;-84
2022/04/28 03:01:23;;;;;;;27.33;10.85;;;1.80;99.90;;;;;;5051407;28;20053;-83
2022/04/28 03:03:49;;;;;;;23.05;10.95;;;1.90;99.90;;;;;;5053375;28;20041;-83
2022/04/28 03:11:45;;;;;;;21.00;10.60;;;2.20;99.90;;;;;;5042154;28;20041;-84
2022/04/28 03:14:12;;;;;;;21.55;10.70;;;2.30;99.90;;;;;;5015305;28;20499;-84
2022/04/28 03:16:38;;;;;;;16.67;9.88;;;2.40;99.90;;;;;;4999290;28;20179;-84
2022/04/28 03:19:04;;;;;;;18.65;9.50;;;2.60;99.90;;;;;;5032671;28;20613;-84
2022/04/28 03:21:30;;;;;;;17.77;9.77;;;2.70;99.90;;;;;;5034329;28;20080;-85
2022/04/28 03:23:56;;;;;;;18.13;10.30;;;2.80;99.90;;;;;;5032546;28;20409;-84
2022/04/28 03:26:22;;;;;;;17.73;9.20;;;3.30;99.90;;;;;;5031684;28;20057;-84
2022/04/28 03:28:48;;;;;;;17.88;9.05;;;3.10;99.90;;;;;;5015593;28;20060;-84
2022/04/28 03:31:14;;;;;;;14.05;7.90;;;3.20;99.90;;;;;;5026432;28;20049;-84
2022/04/28 03:33:39;;;;;;;15.85;8.93;;;3.30;99.90;;;;;;5019483;28;20109;-83
2022/04/28 03:39:07;;;;;;;20.27;8.43;;;3.60;99.90;;;;;;5032747;28;20103;-84
2022/04/28 03:41:33;;;;;;;19.73;8.70;;;3.70;99.90;;;;;;5038159;28;20128;-84
2022/04/28 03:43:59;;;;;;;15.40;8.38;;;3.70;99.90;;;;;;5020723;28;20045;-84
2022/04/28 03:46:24;;;;;;;16.85;8.88;;;3.80;99.90;;;;;;5032855;28;20380;-83
2022/04/28 03:48:50;;;;;;;13.93;7.90;;;3.90;99.90;;;;;;5032726;28;20068;-83
2022/04/28 03:51:16;;;;;;;18.27;8.05;;;4.00;99.90;;;;;;5032769;28;20050;-83
2022/04/28 03:53:42;;;;;;;16.38;8.30;;;4.10;99.90;;;;;;5048036;28;20577;-83
2022/04/28 03:56:08;;;;;;;15.05;7.72;;;4.10;99.90;;;;;;5034844;28;20052;-84
2022/04/28 03:58:33;;;;;;;15.85;8.48;;;4.20;99.90;;;;;;5046024;28;20168;-84
2022/04/28 04:00:59;;;;;;;21.05;9.52;;;4.30;99.90;;;;;;5014857;28;20422;-85
2022/04/28 04:03:25;;;;;;;20.20;8.25;;;4.40;99.90;;;;;;5015024;28;20045;-84
2022/04/28 04:05:58;;;;;;;18.70;8.77;;;4.40;99.90;;;;;;5030764;28;20047;-84
2022/04/28 04:08:24;;;;;;;12.70;7.60;;;4.50;99.90;;;;;;5014319;28;20145;-83
2022/04/28 04:10:49;;;;;;;17.15;8.23;;;4.60;99.90;;;;;;5016495;28;20127;-83
2022/04/28 04:13:15;;;;;;;17.98;8.30;;;4.60;99.90;;;;;;5014374;28;20084;-83
2022/04/28 04:15:42;;;;;;;20.25;8.25;;;4.70;99.90;;;;;;5033525;28;20048;-84
2022/04/28 04:18:08;;;;;;;14.63;8.48;;;4.70;99.90;;;;;;5014242;28;20088;-83
2022/04/28 04:20:34;;;;;;;16.98;8.40;;;4.70;99.90;;;;;;4998084;28;20061;-84
2022/04/28 04:23:01;;;;;;;14.30;7.75;;;4.80;99.90;;;;;;5032335;28;20041;-84
2022/04/28 04:25:27;;;;;;;17.95;7.78;;;4.90;99.90;;;;;;5032930;28;20503;-84
2022/04/28 04:27:52;;;;;;;15.55;7.25;;;4.90;99.90;;;;;;5015030;28;20050;-85
2022/04/28 04:33:05;;;;;;;15.30;7.43;;;5.20;99.90;;;;;;5031849;28;20053;-84
2022/04/28 04:35:31;;;;;;;19.98;7.88;;;5.10;99.90;;;;;;5036070;28;20037;-83
2022/04/28 04:37:57;;;;;;;19.67;8.05;;;5.20;99.90;;;;;;5021881;28;20403;-83
2022/04/28 04:40:22;;;;;;;15.75;7.30;;;5.30;99.90;;;;;;5038572;28;20508;-85
2022/04/28 04:42:48;;;;;;;17.65;7.68;;;5.30;99.90;;;;;;5034963;28;20099;-83
2022/04/28 04:45:14;;;;;;;15.73;6.85;;;5.30;99.90;;;;;;5017290;28;20053;-83
2022/04/28 04:47:40;;;;;;;12.55;7.38;;;5.40;99.90;;;;;;5033966;28;20376;-84
2022/04/28 04:50:07;;;;;;;14.50;6.95;;;5.40;99.90;;;;;;5025692;28;20099;-83
2022/04/28 04:52:34;;;;;;;17.13;7.28;;;5.50;99.90;;;;;;5018054;28;20060;-83
2022/04/28 04:55:00;;;;;;;14.23;6.03;;;5.60;99.90;;;;;;5018075;28;20407;-83
2022/04/28 04:57:26;;;;;;;14.43;6.93;;;5.90;99.90;;;;;;5018006;28;20128;-84
2022/04/28 04:59:52;;;;;;;17.42;7.10;;;5.60;99.90;;;;;;5016788;28;20046;-83
2022/04/28 05:02:18;;;;;;;14.25;6.82;;;5.70;99.90;;;;;;5019097;28;20050;-83
2022/04/28 05:04:43;;;;;;;13.00;7.07;;;5.80;99.90;;;;;;4998917;28;20050;-84
2022/04/28 05:07:09;;;;;;;18.20;7.47;;;5.80;99.90;;;;;;5015834;28;20091;-83
2022/04/28 05:09:37;;;;;;;18.02;7.40;;;5.90;99.90;;;;;;5034539;28;20053;-84
2022/04/28 05:12:04;;;;;;;14.93;6.57;;;6.00;99.90;;;;;;4996528;28;20042;-84
2022/04/28 05:14:29;;;;;;;13.68;6.32;;;6.10;99.90;;;;;;5028775;28;20041;-84
2022/04/28 05:16:57;;;;;;;16.00;6.70;;;6.20;99.90;;;;;;5017736;28;20075;-84
2022/04/28 05:19:23;;;;;;;17.52;6.88;;;6.20;99.90;;;;;;5003634;28;20081;-84
2022/04/28 05:21:49;;;;;;;12.90;6.07;;;6.30;99.90;;;;;;5035300;28;20049;-84
2022/04/28 05:24:16;;;;;;;18.25;7.35;;;6.40;99.90;;;;;;5035310;28;20056;-84
2022/04/28 05:26:41;;;;;;;17.52;7.20;;;6.70;99.90;;;;;;5017960;28;20493;-84
2022/04/28 05:29:07;;;;;;;20.73;6.68;;;6.60;99.90;;;;;;5014767;28;20141;-84
2022/04/28 05:31:33;;;;;;;18.20;6.90;;;6.70;99.90;;;;;;4997553;28;20506;-84
2022/04/28 05:33:58;;;;;;;15.05;6.75;;;6.80;99.90;;;;;;4997302;28;20502;-85
2022/04/28 05:36:26;;;;;;;19.55;7.13;;;7.20;99.90;;;;;;5017234;28;20477;-84
2022/04/28 05:38:52;;;;;;;13.98;6.78;;;7.00;99.90;;;;;;5032961;28;20121;-84
2022/04/28 05:41:18;;;;;;;15.32;6.95;;;7.40;99.90;;;;;;4999354;28;20514;-82
2022/04/28 05:46:31;;;;;;;18.95;6.53;;;7.30;99.90;;;;;;5016714;28;20422;-85
2022/04/28 05:48:56;;;;;;;10.25;6.57;;;7.50;99.90;;;;;;5017020;28;20054;-84
2022/04/28 05:51:22;;;;;;;13.38;6.22;;;7.60;99.90;;;;;;5034909;28;20403;-84
2022/04/28 05:53:47;;;;;;;16.48;6.65;;;7.70;99.90;;;;;;5034510;28;20467;-84
2022/04/28 05:56:13;;;;;;;14.32;6.18;;;7.80;99.90;;;;;;5034401;28;20399;-86
2022/04/28 05:58:39;;;;;;;14.90;7.03;;;7.80;99.90;;;;;;5034759;28;20132;-84
2022/04/28 06:01:05;;;;;;;10.70;6.55;;;7.90;99.90;;;;;;5034751;28;20041;-84
2022/04/28 06:03:31;;;;;;;15.68;7.00;;;8.00;99.90;;;;;;5034221;28;20470;-84
2022/04/28 06:05:56;;;;;;;15.30;6.55;;;8.10;99.90;;;;;;5034331;28;20148;-84
2022/04/28 06:08:22;;;;;;;14.40;6.32;;;8.20;99.90;;;;;;5016989;28;20045;-84
2022/04/28 06:10:47;;;;;;;9.95;5.45;;;8.10;99.90;;;;;;5016795;28;20037;-85
2022/04/28 06:13:13;;;;;;;13.25;6.05;;;8.10;99.90;;;;;;5034207;28;20526;-84
2022/04/28 06:15:39;;;;;;;21.02;6.07;;;8.10;99.90;;;;;;5016490;28;20041;-85
2022/04/28 06:18:05;;;;;;;15.05;6.00;;;8.10;99.90;;;;;;5033951;28;20099;-85
2022/04/28 06:20:31;;;;;;;12.80;5.65;;;8.20;99.90;;;;;;5034402;28;20053;-85
2022/04/28 06:23:12;;;;;;;14.75;6.20;;;8.30;99.90;;;;;;5033958;28;20056;-86
2022/04/28 06:25:38;;;;;;;;;;;8.40;99.90;;;;;;5000711;28;20041;-85
2022/04/28 06:28:04;;;;;;;13.52;5.82;;;8.60;99.90;;;;;;5016586;28;19921;-85
2022/04/28 06:30:30;;;;;;;11.02;5.15;;;8.50;99.90;;;;;;5033968;28;20049;-85
2022/04/28 06:32:56;;;;;;;9.27;5.57;;;8.50;99.90;;;;;;4999788;28;20037;-85
2022/04/28 06:35:22;;;;;;;11.68;5.28;;;8.60;99.90;;;;;;5033988;28;20535;-84
2022/04/28 06:37:47;;;;;;;10.43;5.00;;;8.70;99.90;;;;;;5034071;28;20403;-85
2022/04/28 06:40:13;;;;;;;12.75;5.45;;;8.80;99.90;;;;;;5033798;28;20103;-85
2022/04/28 06:42:43;;;;;;;12.40;4.28;;;8.90;99.90;;;;;;5015980;28;20103;-86
2022/04/28 06:45:13;;;;;;;15.20;4.57;;;9.10;99.90;;;;;;5033796;28;20057;-85
2022/04/28 06:47:39;;;;;;;19.95;5.18;;;9.00;99.90;;;;;;5033428;28;20049;-84
2022/04/28 06:50:05;;;;;;;11.02;4.00;;;9.10;99.90;;;;;;5016141;28;20092;-85
2022/04/28 06:52:33;;;;;;;9.10;4.38;;;9.10;99.90;;;;;;5015953;28;20045;-85
2022/04/28 06:54:59;;;;;;;13.57;4.30;;;9.20;99.90;;;;;;5015897;28;20053;-86
2022/04/28 06:57:25;;;;;;;14.50;4.80;;;9.30;99.90;;;;;;5015949;28;20046;-85
2022/04/28 06:59:50;;;;;;;10.82;4.82;;;9.40;99.90;;;;;;5033396;28;20057;-86
2022/04/28 07:02:17;;;;;;;11.90;5.05;;;9.30;99.90;;;;;;5015917;28;20483;-86
2022/04/28 07:04:43;;;;;;;13.18;5.22;;;9.40;99.90;;;;;;5015993;28;20049;-86
2022/04/28 07:07:08;;;;;;;9.18;4.70;;;9.40;99.90;;;;;;5015924;28;20088;-85
2022/04/28 07:09:34;;;;;;;12.65;5.35;;;9.40;99.90;;;;;;4999377;28;20097;-87
2022/04/28 07:12:00;;;;;;;12.63;4.82;;;9.40;99.90;;;;;;5033022;28;20128;-86
2022/04/28 07:14:25;;;;;;;11.65;4.85;;;9.50;99.90;;;;;;5031633;28;20064;-85
2022/04/28 07:16:51;;;;;;;11.35;4.45;;;9.50;99.90;;;;;;5033155;28;20052;-86
2022/04/28 07:19:17;;;;;;;14.18;5.35;;;9.70;99.90;;;;;;5015036;28;20057;-85
2022/04/28 07:21:42;;;;;;;17.00;4.82;;;9.70;99.90;;;;;;5033110;28;20045;-86
2022/04/28 07:24:08;;;;;;;12.38;4.65;;;9.70;99.90;;;;;;4999337;28;20048;-85
2022/04/28 07:26:34;;;;;;;13.00;4.60;;;9.70;99.90;;;;;;4999031;28;20064;-85
2022/04/28 07:28:59;;;;;;;14.25;4.00;;;9.70;99.90;;;;;;5033237;28;20041;-85
2022/04/28 07:31:25;;;;;;;16.02;4.95;;;9.80;99.90;;;;;;5015311;28;20045;-85
2022/04/28 07:33:51;;;;;;;12.73;4.55;;;9.90;99.90;;;;;;5015162;28;20037;-86
2022/04/28 07:36:16;;;;;;;12.73;4.10;;;9.90;99.90;;;;;;5015425;28;20109;-86
2022/04/28 07:38:42;;;;;;;13.93;4.05;;;10.00;99.90;;;;;;5015638;28;20131;-85
2022/04/28 07:41:12;;;;;;;14.63;4.50;;;10.10;99.90;;;;;;5031377;28;20081;-85
2022/04/28 07:43:38;;;;;;;10.55;4.15;;;10.30;99.90;;;;;;5014931;28;20060;-85
2022/04/28 07:46:03;;;;;;;10.38;4.55;;;10.40;99.90;;;;;;4998549;28;20049;-85
2022/04/28 07:48:29;;;;;;;9.88;4.25;;;10.50;99.90;;;;;;5032732;28;20110;-87
2022/04/28 07:50:55;;;;;;;10.43;3.60;;;10.60;99.90;;;;;;5015430;28;20045;-86
2022/04/28 07:53:21;;;;;;;10.85;4.00;;;10.80;99.90;;;;;;5015127;28;20045;-86
2022/04/28 07:56:10;;;;;;;12.13;3.75;;;10.80;99.90;;;;;;4998716;28;20515;-86
2022/04/28 07:58:33;;;;;;;11.63;4.47;;;11.20;99.90;;;;;;5032436;28;20059;-86
2022/04/28 08:00:59;;;;;;;13.13;4.80;;;11.20;99.90;;;;;;5015003;28;20487;-86
2022/04/28 08:03:25;;;;;;;11.75;4.57;;;11.20;99.90;;;;;;5032824;28;20134;-85
2022/04/28 08:05:52;;;;;;;12.00;4.35;;;11.40;99.90;;;;;;5015220;28;20061;-87
2022/04/28 08:08:17;;;;;;;10.00;4.32;;;11.60;99.90;;;;;;5032561;28;20102;-86
2022/04/28 08:10:43;;;;;;;8.48;3.45;;;12.00;99.90;;;;;;5033938;28;20207;-86
2022/04/28 08:13:08;;;;;;;14.95;3.78;;;12.70;99.90;;;;;;5036433;28;20055;-85
2022/04/28 08:15:36;;;;;;;11.65;3.97;;;14.00;99.90;;;;;;5018300;28;20150;-88
2022/04/28 08:18:02;;;;;;;10.95;3.20;;;15.60;99.90;;;;;;5036502;28;20049;-86
2022/04/28 08:20:28;;;;;;;10.18;3.33;;;17.00;99.90;;;;;;5036515;28;20124;-87
2022/04/28 08:22:53;;;;;;;9.52;3.17;;;18.00;96.90;;;;;;5018989;28;20483;-87
2022/04/28 08:25:19;;;;;;;8.95;2.38;;;18.80;89.80;;;;;;5036267;28;20483;-88
2022/04/28 08:27:45;;;;;;;12.55;3.13;;;19.30;79.50;;;;;;5036098;28;20041;-87
2022/04/28 08:30:14;;;;;;;9.05;3.35;;;20.00;72.50;;;;;;5018878;28;20115;-87
2022/04/28 08:32:40;;;;;;;10.55;2.97;;;19.80;68.10;;;;;;5035795;28;20052;-88
2022/04/28 08:35:06;;;;;;;11.82;3.38;;;18.90;70.80;;;;;;5002133;28;20053;-86
2022/04/28 08:37:32;;;;;;;7.47;2.95;;;17.90;77.90;;;;;;5018660;28;20475;-87
2022/04/28 08:39:58;;;;;;;9.75;2.83;;;17.10;84.30;;;;;;5036135;28;20132;-87
2022/04/28 08:42:28;;;;;;;8.00;3.28;;;16.40;87.00;;;;;;5017858;28;20099;-88
2022/04/28 08:44:58;;;;;;;6.70;2.97;;;15.90;90.90;;;;;;5035957;28;20129;-88
2022/04/28 08:47:25;;;;;;;8.77;3.08;;;15.40;92.70;;;;;;5018618;28;20120;-87
2022/04/28 08:49:51;;;;;;;11.18;3.60;;;15.00;96.40;;;;;;5035043;28;20049;-87
2022/04/28 08:52:17;;;;;;;10.63;2.85;;;14.70;98.30;;;;;;5001486;28;20462;-87
2022/04/28 08:54:50;;;;;;;10.70;3.58;;;14.30;99.30;;;;;;5035971;28;20053;-85
2022/04/28 08:57:15;;;;;;;8.32;2.97;;;13.90;99.90;;;;;;5018509;28;20056;-86
2022/04/28 08:59:41;;;;;;;14.90;3.40;;;13.60;99.90;;;;;;5018069;28;20046;-89
2022/04/28 09:02:13;;;;;;;20.95;4.32;;;13.50;99.90;;;;;;5017868;28;20128;-88
2022/04/28 09:04:42;;;;;;;15.35;3.80;;;13.30;99.90;;;;;;5002047;28;20057;-86
2022/04/28 09:07:08;;;;;;;10.48;3.03;;;13.10;99.90;;;;;;5035642;28;20045;-86
2022/04/28 09:09:34;;;;;;;7.65;2.88;;;13.00;99.90;;;;;;5035670;28;20380;-87
2022/04/28 09:12:01;;;;;;;12.52;3.40;;;13.00;99.90;;;;;;5018023;28;20044;-87
2022/04/28 09:14:27;;;;;;;17.38;4.63;;;12.90;99.90;;;;;;5017627;28;20048;-87
2022/04/28 09:16:59;;;;;;;6.10;2.38;;;12.90;99.90;;;;;;5017825;28;20411;-86
2022/04/28 09:19:37;;;;;;;6.57;2.53;;;12.80;99.90;;;;;;5018295;28;20049;-86
2022/04/28 09:22:09;;;;;;;11.57;2.35;;;12.90;99.90;;;;;;5035832;28;20051;-87
2022/04/28 09:24:42;;;;;;;8.10;2.30;;;12.90;99.90;;;;;;5019237;28;20056;-87
2022/04/28 09:27:08;;;;;;;9.55;2.63;;;13.40;99.90;;;;;;5036572;28;20051;-87
2022/04/28 09:29:39;;;;;;;12.07;2.17;;;13.50;99.90;;;;;;5036067;28;20047;-86
2022/04/28 09:32:12;;;;;;;6.25;2.60;;;13.70;99.90;;;;;;5037578;28;20046;-87
2022/04/28 09:34:49;;;;;;;16.20;2.70;;;13.90;99.90;;;;;;5037582;28;20052;-87
2022/04/28 09:37:22;;;;;;;15.55;3.20;;;14.10;99.90;;;;;;5037993;28;20418;-87
2022/04/28 09:42:42;;;;;;;9.65;2.85;;;15.10;98.30;;;;;;5038251;28;20111;-87
2022/04/28 09:45:10;;;;;;;9.80;2.65;;;15.60;93.00;;;;;;5037794;28;20037;-91
2022/04/28 09:47:36;;;;;;;7.65;2.75;;;15.90;92.30;;;;;;5036381;28;20057;-87
2022/04/28 09:50:15;;;;;;;13.65;2.50;;;16.20;90.70;;;;;;5018491;28;20099;-87
2022/04/28 09:52:43;;;;;;;5.15;2.10;;;16.40;90.10;;;;;;5017000;28;20045;-87
2022/04/28 09:55:09;;;;;;;11.40;2.67;;;16.70;86.40;;;;;;5000437;28;20119;-87
2022/04/28 09:57:35;;;;;;;11.95;2.78;;;16.80;83.20;;;;;;5016377;28;20068;-87
2022/04/28 10:00:01;;;;;;;9.45;2.17;;;17.00;79.70;;;;;;5015659;28;20053;-87
2022/04/28 10:02:28;;;;;;;8.15;2.20;;;16.80;77.40;;;;;;5033331;28;20442;-87
2022/04/28 10:04:55;;;;;;;10.50;2.22;;;16.70;80.80;;;;;;5015812;28;20143;-88
2022/04/28 10:07:22;;;;;;;15.98;3.10;;;16.70;82.60;;;;;;5016057;28;20045;-88
2022/04/28 10:09:50;;;;;;;6.55;2.30;;;17.20;83.90;;;;;;5032431;28;20050;-88
2022/04/28 10:12:22;;;;;;;8.00;2.10;;;18.80;68.60;;;;;;5033711;28;20053;-88
2022/04/28 10:14:49;;;;;;;6.75;2.10;;;19.20;65.10;;;;;;5015959;28;20049;-86
2022/04/28 10:17:28;;;;;;;7.15;2.10;;;19.10;62.50;;;;;;5015751;28;20049;-87
2022/04/28 10:20:01;;;;;;;17.38;3.38;;;18.60;62.80;;;;;;5016241;28;20445;-88
2022/04/28 10:22:32;;;;;;;24.92;4.47;;;17.90;66.70;;;;;;5033479;28;20046;-87
2022/04/28 10:33:19;;;;;;;5.18;1.90;;;18.50;65.30;;;;;;5014686;28;19928;-88
2022/04/28 10:35:48;;;;;;;7.95;2.22;;;18.70;62.70;;;;;;5015869;28;20041;-88
2022/04/28 10:38:14;;;;;;;7.25;2.13;;;18.90;63.50;;;;;;4999059;28;20104;-88
2022/04/28 10:40:55;;;;;;;6.18;1.83;;;19.70;62.00;;;;;;4998895;28;20534;-88
2022/04/28 10:43:30;;;;;;;12.38;2.63;;;20.70;55.50;;;;;;4961576;28;1091263;-88
2022/04/28 10:45:57;;;;;;;7.15;2.05;;;20.80;55.80;;;;;;5012934;28;20057;-88
2022/04/28 10:48:43;;;;;;;7.28;1.98;;;20.20;55.00;;;;;;4996043;28;20142;-87
2022/04/28 10:51:22;;;;;;;6.63;2.00;;;19.50;56.20;;;;;;4996423;28;20133;-87
2022/04/28 10:54:07;;;;;;;7.80;2.00;;;20.00;58.90;;;;;;4996062;28;20184;-88
2022/04/28 10:56:42;;;;;;;7.13;2.30;;;21.20;53.40;;;;;;5012140;28;20069;-89
2022/04/28 10:59:34;;;;;;;7.03;1.83;;;21.00;52.60;;;;;;4996431;28;20133;-87
2022/04/28 11:02:11;;;;;;;8.05;1.83;;;20.40;54.40;;;;;;4991598;28;20061;-88
2022/04/28 11:04:39;;;;;;;7.10;2.00;;;20.70;54.60;;;;;;4996528;28;20472;-87
2022/04/28 11:07:28;;;;;;;7.28;2.08;;;21.00;53.90;;;;;;4980169;28;20121;-87
2022/04/28 11:09:57;;;;;;;6.57;2.00;;;21.20;51.20;;;;;;5013653;28;20108;-88
2022/04/28 11:12:25;;;;;;;7.45;2.67;;;21.10;52.60;;;;;;5013529;28;20081;-88
2022/04/28 11:14:59;;;;;;;9.45;2.53;;;20.80;52.80;;;;;;4996002;28;20145;-88
2022/04/28 11:17:28;;;;;;;17.35;2.75;;;20.30;53.20;;;;;;5013820;28;20081;-88
2022/04/28 11:19:54;;;;;;;12.98;2.90;;;19.90;55.20;;;;;;4996047;28;20399;-88
2022/04/28 11:22:21;;;;;;;13.52;2.88;;;20.40;55.10;;;;;;4996117;28;20049;-88
2022/04/28 11:24:48;;;;;;;11.35;2.75;;;20.80;53.40;;;;;;4995616;28;20054;-89
2022/04/28 11:27:18;;;;;;;6.50;2.42;;;20.60;51.90;;;;;;4979904;28;20141;-88
2022/04/28 11:29:43;;;;;;;9.30;2.42;;;20.50;51.90;;;;;;4979560;28;20085;-88
2022/04/28 11:32:09;;;;;;;14.13;2.53;;;20.60;52.30;;;;;;5012303;28;20167;-88
2022/04/28 11:34:35;;;;;;;8.98;2.50;;;20.70;53.30;;;;;;5013084;28;20054;-88
2022/04/28 11:37:22;;;;;;;14.63;2.85;;;21.30;53.60;;;;;;5012953;28;20049;-88
2022/04/28 11:39:50;;;;;;;8.52;2.40;;;21.60;50.20;;;;;;4995828;28;20049;-86
2022/04/28 11:42:17;;;;;;;8.85;2.28;;;21.30;50.90;;;;;;4979299;28;20061;-88
2022/04/28 11:44:46;;;;;;;7.22;2.67;;;21.30;52.10;;;;;;5012892;28;20057;-89
2022/04/28 11:47:13;;;;;;;12.15;2.97;;;22.40;50.70;;;;;;4995334;28;20456;-89
2022/04/28 11:49:40;;;;;;;9.93;2.50;;;23.20;47.90;;;;;;5012741;28;20064;-87
2022/04/28 11:52:23;;;;;;;4.72;2.10;;;24.30;47.60;;;;;;4995296;28;20407;-87
2022/04/28 11:55:01;;;;;;;9.65;2.25;;;25.40;43.30;;;;;;5012963;28;20687;-88
2022/04/28 11:57:27;;;;;;;9.85;2.65;;;24.40;43.00;;;;;;4995456;28;20045;-88
2022/04/28 11:59:54;;;;;;;7.20;2.47;;;23.20;45.50;;;;;;4995616;28;20061;-88
2022/04/28 12:02:32;;;;;;;8.43;2.22;;;23.40;46.80;;;;;;4995469;28;20061;-89
2022/04/28 12:05:00;;;;;;;5.90;2.22;;;24.60;45.80;;;;;;4979087;28;20042;-89
2022/04/28 12:07:37;;;;;;;7.45;2.47;;;25.30;42.90;;;;;;4995619;28;20038;-89
2022/04/28 12:15:33;;;;;;;9.90;2.33;;;22.80;46.20;;;;;;4989169;28;20484;-86
2022/04/28 12:20:58;;;;;;;10.05;2.88;;;23.10;43.70;;;;;;4995247;28;20092;-88
2022/04/28 12:23:28;;;;;;;5.88;2.30;;;22.60;46.30;;;;;;4995080;28;20056;-90
2022/04/28 12:26:01;;;;;;;8.73;2.65;;;23.30;46.10;;;;;;5012934;28;20053;-89
2022/04/28 12:28:48;;;;;;;8.23;3.03;;;24.60;44.80;;;;;;5012756;28;20456;-89
2022/04/28 12:31:24;;;;;;;11.88;3.00;;;25.80;42.70;;;;;;5012531;28;20054;-85
2022/04/28 12:33:50;;;;;;;9.48;3.08;;;26.90;41.60;;;;;;5012448;28;20479;-90
2022/04/28 12:36:16;;;;;;;11.30;2.88;;;27.50;40.40;;;;;;4978915;28;20092;-89
2022/04/28 12:38:50;;;;;;;9.45;3.00;;;27.30;39.80;;;;;;4995358;28;20042;-89
2022/04/28 12:41:22;;;;;;;10.70;3.30;;;26.40;40.40;;;;;;4995092;28;20553;-89
2022/04/28 12:44:00;;;;;;;6.20;2.63;;;25.70;41.50;;;;;;5009622;28;20062;-87
2022/04/28 12:46:34;;;;;;;10.25;3.10;;;25.10;42.40;;;;;;5012739;28;20046;-89
2022/04/28 12:49:05;;;;;;;7.05;2.70;;;24.80;43.70;;;;;;4995880;28;20042;-86
2022/04/28 12:51:41;;;;;;;9.15;3.00;;;24.80;43.40;;;;;;4997283;28;20046;-90
2022/04/28 12:54:13;;;;;;;8.13;2.83;;;25.20;43.40;;;;;;5000351;28;20045;-88
2022/04/28 12:56:42;;;;;;;10.00;3.15;;;25.20;41.90;;;;;;4982783;28;20069;-89
2022/04/28 12:59:09;;;;;;;10.75;3.15;;;24.80;42.50;;;;;;4999019;28;20173;-89
2022/04/28 13:01:36;;;;;;;9.45;3.40;;;25.00;41.90;;;;;;4982424;28;20133;-89
2022/04/28 13:04:06;;;;;;;10.27;3.50;;;25.30;40.80;;;;;;4982514;28;20131;-89
2022/04/28 13:06:37;;;;;;;11.68;3.10;;;25.60;40.40;;;;;;4998576;28;20132;-89
2022/04/28 13:09:07;;;;;;;8.35;2.85;;;25.40;40.50;;;;;;4998374;28;20057;-89
2022/04/28 13:11:36;;;;;;;11.15;2.70;;;25.10;40.20;;;;;;4981820;28;20519;-90
2022/04/28 13:14:04;;;;;;;10.27;2.67;;;24.20;41.60;;;;;;5015473;28;20046;-89
2022/04/28 13:16:30;;;;;;;12.60;3.03;;;23.00;43.00;;;;;;4998399;28;20144;-89
2022/04/28 13:18:56;;;;;;;7.22;2.72;;;22.30;45.20;;;;;;5015632;28;20049;-89
2022/04/28 13:21:23;;;;;;;6.82;2.70;;;22.10;46.20;;;;;;5015463;28;20588;-89
2022/04/28 13:23:49;;;;;;;13.15;2.80;;;22.00;46.70;;;;;;4998069;28;20046;-84
2022/04/28 13:26:17;;;;;;;12.60;3.10;;;21.80;47.80;;;;;;4998547;28;20385;-89
2022/04/28 13:28:44;;;;;;;8.88;2.75;;;21.70;47.10;;;;;;4997914;28;20053;-88
2022/04/28 13:31:12;;;;;;;7.65;2.95;;;21.20;48.10;;;;;;5015492;28;20053;-88
2022/04/28 13:33:38;;;;;;;5.85;2.47;;;21.10;49.00;;;;;;5015265;28;20046;-87
2022/04/28 13:36:05;;;;;;;10.07;2.55;;;21.20;49.70;;;;;;5015628;28;20046;-85
2022/04/28 13:38:31;;;;;;;8.60;2.55;;;21.40;50.30;;;;;;4997706;28;20042;-87
2022/04/28 13:40:58;;;;;;;8.23;2.45;;;21.50;49.50;;;;;;5015226;28;20117;-87
2022/04/28 13:43:24;;;;;;;8.90;2.70;;;21.60;49.30;;;;;;5028298;28;20058;-88
2022/04/28 13:45:50;;;;;;;11.40;2.88;;;21.40;49.00;;;;;;5033474;28;20053;-88
2022/04/28 13:48:19;;;;;;;13.38;2.95;;;21.00;49.30;;;;;;5001053;28;20132;-90
2022/04/28 13:50:49;;;;;;;8.73;2.47;;;20.70;50.30;;;;;;5034995;28;20125;-88
2022/04/28 13:53:16;;;;;;;9.27;2.70;;;20.60;51.00;;;;;;5017138;28;20053;-87
2022/04/28 13:55:44;;;;;;;8.75;2.47;;;20.70;52.50;;;;;;5017120;28;20410;-88